createdAt,value
2018-03-22T00:01:12.732Z,81.00
2018-03-22T00:03:41.736Z,80.40
2018-03-22T00:06:10.746Z,81.00
2018-03-22T00:08:38.944Z,81.00
2018-03-22T00:11:07.188Z,81.20
2018-03-22T00:13:35.435Z,81.10
2018-03-22T00:16:04.401Z,81.10
2018-03-22T00:18:32.614Z,81.10
2018-03-22T00:21:01.654Z,82.80
2018-03-22T00:23:29.893Z,82.10
2018-03-22T00:25:58.889Z,82.10
2018-03-22T00:28:27.121Z,82.20
2018-03-22T00:30:55.849Z,81.80
2018-03-22T00:33:24.852Z,81.40
2018-03-22T00:35:53.147Z,81.40
2018-03-22T00:38:21.413Z,82.00
2018-03-22T00:40:49.913Z,81.10
2018-03-22T00:43:18.173Z,81.20
2018-03-22T00:45:46.402Z,81.60
2018-03-22T00:48:14.609Z,81.40
2018-03-22T00:50:42.854Z,81.40
2018-03-22T00:53:11.854Z,80.90
2018-03-22T00:55:40.910Z,80.70
2018-03-22T00:58:09.221Z,80.70
2018-03-22T01:00:37.487Z,80.80
2018-03-22T01:03:06.026Z,81.30
2018-03-22T01:05:34.261Z,81.90
2018-03-22T01:08:03.303Z,81.00
2018-03-22T01:10:31.557Z,81.00
2018-03-22T01:13:00.561Z,81.60
2018-03-22T01:15:28.882Z,81.60
2018-03-22T01:17:57.306Z,81.30
2018-03-22T01:20:25.809Z,81.20
2018-03-22T01:22:54.049Z,81.30
2018-03-22T01:25:23.056Z,82.30
2018-03-22T01:27:51.293Z,82.30
2018-03-22T01:30:31.338Z,81.90
2018-03-22T01:32:59.831Z,82.40
2018-03-22T01:35:28.042Z,81.50
2018-03-22T01:37:57.456Z,82.00
2018-03-22T01:40:25.777Z,82.10
2018-03-22T01:42:54.033Z,82.60
2018-03-22T01:45:22.281Z,83.20
2018-03-22T01:47:51.274Z,83.10
2018-03-22T01:50:19.497Z,83.00
2018-03-22T01:52:59.534Z,82.50
2018-03-22T01:55:27.753Z,83.70
2018-03-22T01:57:56.724Z,83.30
2018-03-22T02:00:25.025Z,83.30
2018-03-22T02:02:53.421Z,83.80
2018-03-22T02:05:21.636Z,83.40
2018-03-22T02:07:49.914Z,82.70
2018-03-22T02:10:18.232Z,81.80
2018-03-22T02:12:47.254Z,81.60
2018-03-22T02:15:15.611Z,81.60
2018-03-22T02:17:43.817Z,81.50
2018-03-22T02:20:12.039Z,81.00
2018-03-22T02:22:41.109Z,81.50
2018-03-22T02:25:09.336Z,81.50
2018-03-22T02:27:37.587Z,81.90
2018-03-22T02:30:06.690Z,82.00
2018-03-22T02:32:34.905Z,82.00
2018-03-22T02:35:03.114Z,82.50
2018-03-22T02:37:31.348Z,81.70
2018-03-22T02:39:59.582Z,82.10
2018-03-22T02:42:27.793Z,82.10
2018-03-22T02:44:56.087Z,81.80
2018-03-22T02:47:24.289Z,81.40
2018-03-22T02:49:52.499Z,81.20
2018-03-22T02:52:21.703Z,80.90
2018-03-22T02:54:49.904Z,80.90
2018-03-22T02:57:18.124Z,80.70
2018-03-22T02:59:47.120Z,80.30
2018-03-22T03:02:16.110Z,81.10
2018-03-22T03:04:44.360Z,81.00
2018-03-22T03:07:13.388Z,80.00
2018-03-22T03:09:42.381Z,80.40
2018-03-22T03:12:11.362Z,80.00
2018-03-22T03:14:39.611Z,79.90
2018-03-22T03:17:07.812Z,79.40
2018-03-22T03:19:36.073Z,78.10
2018-03-22T03:22:04.334Z,78.80
2018-03-22T03:24:32.542Z,79.30
2018-03-22T03:27:00.812Z,77.30
2018-03-22T03:29:29.095Z,77.10
2018-03-22T03:31:57.352Z,78.80
2018-03-22T03:34:25.558Z,77.60
2018-03-22T03:36:53.784Z,78.50
2018-03-22T03:39:22.030Z,79.00
2018-03-22T03:41:50.365Z,77.60
2018-03-22T03:44:18.629Z,76.80
2018-03-22T03:46:46.885Z,77.00
2018-03-22T03:49:15.092Z,76.60
2018-03-22T03:51:43.370Z,77.80
2018-03-22T03:54:11.570Z,77.30
2018-03-22T03:56:40.622Z,76.60
2018-03-22T03:59:08.973Z,76.60
2018-03-22T04:01:37.112Z,78.10
2018-03-22T04:04:06.136Z,78.30
2018-03-22T04:06:34.374Z,78.20
2018-03-22T04:09:02.577Z,75.80
2018-03-22T04:11:30.819Z,76.60
2018-03-22T04:13:59.104Z,76.30
2018-03-22T04:16:28.072Z,75.00
2018-03-22T04:18:56.318Z,75.00
2018-03-22T04:21:24.612Z,75.80
2018-03-22T04:23:52.809Z,76.70
2018-03-22T04:26:21.042Z,76.80
2018-03-22T04:28:49.520Z,75.70
2018-03-22T04:31:17.759Z,76.40
2018-03-22T04:33:45.950Z,76.90
2018-03-22T04:36:15.037Z,76.00
2018-03-22T04:38:44.054Z,76.70
2018-03-22T04:41:12.406Z,76.70
2018-03-22T04:43:42.657Z,75.90
2018-03-22T04:46:10.901Z,75.90
2018-03-22T04:48:39.926Z,76.50
2018-03-22T04:51:08.233Z,76.50
2018-03-22T04:53:36.421Z,76.90
2018-03-22T04:56:04.649Z,76.60
2018-03-22T04:58:33.089Z,77.70
2018-03-22T05:01:01.273Z,76.60
2018-03-22T05:03:30.261Z,76.70
2018-03-22T05:05:58.523Z,76.70
2018-03-22T05:08:26.730Z,77.90
2018-03-22T05:10:55.720Z,78.50
2018-03-22T05:13:24.854Z,78.00
2018-03-22T05:15:53.090Z,78.00
2018-03-22T05:18:22.074Z,78.70
2018-03-22T05:20:51.201Z,78.50
2018-03-22T05:23:19.699Z,78.10
2018-03-22T05:25:48.200Z,77.60
2018-03-22T05:28:16.887Z,76.90
2018-03-22T05:30:45.139Z,76.70
2018-03-22T05:33:13.366Z,76.40
2018-03-22T05:35:42.419Z,75.50
2018-03-22T05:38:10.594Z,75.60
2018-03-22T05:40:38.967Z,76.80
2018-03-22T05:43:07.227Z,76.20
2018-03-22T05:45:35.413Z,76.10
2018-03-22T05:48:03.626Z,76.30
2018-03-22T05:50:31.885Z,77.50
2018-03-22T05:53:00.095Z,76.80
2018-03-22T05:55:29.181Z,75.60
2018-03-22T05:57:57.444Z,75.60
2018-03-22T06:00:25.769Z,74.30
2018-03-22T06:02:54.748Z,72.90
2018-03-22T06:05:23.230Z,72.80
2018-03-22T06:07:51.492Z,71.80
2018-03-22T06:10:19.744Z,71.70
2018-03-22T06:12:48.021Z,72.50
2018-03-22T06:15:16.296Z,70.10
2018-03-22T06:17:44.516Z,70.70
2018-03-22T06:20:12.765Z,67.80
2018-03-22T06:22:40.968Z,67.30
2018-03-22T06:25:09.189Z,68.80
2018-03-22T06:27:38.531Z,66.80
2018-03-22T06:30:06.769Z,66.70
2018-03-22T06:32:34.967Z,66.50
2018-03-22T06:35:03.201Z,62.10
2018-03-22T06:37:31.457Z,62.50
2018-03-22T06:40:00.427Z,59.80
2018-03-22T06:42:28.650Z,59.80
2018-03-22T06:44:56.863Z,58.70
2018-03-22T06:47:26.228Z,59.20
2018-03-22T06:49:54.525Z,58.60
2018-03-22T06:52:22.799Z,57.40
2018-03-22T06:54:51.140Z,57.80
2018-03-22T06:57:19.492Z,58.00
2018-03-22T06:59:48.505Z,57.30
2018-03-22T07:02:16.718Z,57.10
2018-03-22T07:04:44.938Z,56.20
2018-03-22T07:07:13.993Z,56.00
2018-03-22T07:09:42.210Z,56.00
2018-03-22T07:12:11.289Z,56.50
2018-03-22T07:14:39.508Z,56.50
2018-03-22T07:17:07.681Z,55.50
2018-03-22T07:19:35.921Z,54.80
2018-03-22T07:22:04.906Z,54.60
2018-03-22T07:24:33.195Z,54.60
2018-03-22T07:27:02.182Z,55.90
2018-03-22T07:29:30.398Z,55.80
2018-03-22T07:31:58.791Z,56.10
2018-03-22T07:34:27.181Z,54.70
2018-03-22T07:36:55.462Z,55.10
2018-03-22T07:39:23.657Z,54.30
2018-03-22T07:41:52.768Z,54.70
2018-03-22T07:44:27.292Z,53.40
2018-03-22T07:46:56.321Z,51.80
2018-03-22T07:49:24.559Z,51.80
2018-03-22T07:51:52.745Z,50.80
2018-03-22T07:54:21.752Z,52.90
2018-03-22T07:56:49.959Z,53.10
2018-03-22T07:59:18.215Z,53.20
2018-03-22T08:01:46.498Z,53.00
2018-03-22T08:04:14.747Z,54.20
2018-03-22T08:06:43.758Z,54.30
2018-03-22T08:09:11.984Z,54.30
2018-03-22T08:11:40.189Z,54.20
2018-03-22T08:14:08.445Z,55.00
2018-03-22T08:16:36.724Z,54.40
2018-03-22T08:19:04.927Z,54.20
2018-03-22T08:21:33.243Z,55.30
2018-03-22T08:24:01.487Z,55.70
2018-03-22T08:26:29.717Z,54.50
2018-03-22T08:28:58.091Z,54.60
2018-03-22T08:31:26.325Z,54.00
2018-03-22T08:33:54.525Z,53.90
2018-03-22T08:36:22.768Z,54.40
2018-03-22T08:38:51.149Z,53.60
2018-03-22T08:41:19.411Z,54.20
2018-03-22T08:43:47.668Z,53.30
2018-03-22T08:46:15.923Z,52.10
2018-03-22T08:48:44.194Z,51.20
2018-03-22T08:51:13.643Z,50.20
2018-03-22T08:53:41.903Z,51.00
2018-03-22T08:56:10.130Z,51.30
2018-03-22T08:58:38.335Z,51.00
2018-03-22T09:01:06.621Z,52.20
2018-03-22T09:03:35.624Z,52.80
2018-03-22T09:06:03.865Z,52.80
2018-03-22T09:08:32.088Z,52.30
2018-03-22T09:11:00.298Z,50.90
2018-03-22T09:13:28.519Z,51.60
2018-03-22T09:15:56.746Z,51.30
2018-03-22T09:18:24.955Z,50.90
2018-03-22T09:20:53.164Z,51.00
2018-03-22T09:23:21.416Z,52.30
2018-03-22T09:25:50.412Z,50.60
2018-03-22T09:28:18.752Z,50.50
2018-03-22T09:30:46.998Z,51.20
2018-03-22T09:33:15.368Z,50.80
2018-03-22T09:35:44.382Z,51.40
2018-03-22T09:38:12.625Z,51.40
2018-03-22T09:40:41.655Z,51.20
2018-03-22T09:43:10.045Z,51.20
2018-03-22T09:45:38.295Z,50.90
2018-03-22T09:48:06.635Z,51.20
2018-03-22T09:50:35.027Z,51.80
2018-03-22T09:53:06.598Z,51.40
2018-03-22T09:55:35.545Z,51.60
2018-03-22T09:58:03.736Z,51.60
2018-03-22T10:00:31.964Z,52.60
2018-03-22T10:03:00.167Z,52.60
2018-03-22T10:05:28.465Z,53.10
2018-03-22T10:07:56.779Z,52.30
2018-03-22T10:10:25.064Z,52.60
2018-03-22T10:12:53.407Z,53.20
2018-03-22T10:15:22.396Z,51.80
2018-03-22T10:17:50.604Z,51.80
2018-03-22T10:20:18.872Z,52.30
2018-03-22T10:22:47.100Z,53.00
2018-03-22T10:25:15.386Z,53.00
2018-03-22T10:27:43.539Z,52.70
2018-03-22T10:30:11.939Z,52.60
2018-03-22T10:32:40.158Z,52.60
2018-03-22T10:35:08.388Z,52.70
2018-03-22T10:37:36.711Z,52.70
2018-03-22T10:40:04.912Z,53.50
2018-03-22T10:42:33.159Z,53.50
2018-03-22T10:45:01.441Z,53.80
2018-03-22T10:47:29.637Z,52.90
2018-03-22T10:49:57.883Z,54.00
2018-03-22T10:52:26.159Z,53.40
2018-03-22T10:54:54.689Z,54.80
2018-03-22T10:57:22.922Z,54.00
2018-03-22T10:59:51.145Z,54.60
2018-03-22T11:02:24.930Z,53.80
2018-03-22T11:04:53.236Z,55.00
2018-03-22T11:07:22.104Z,53.70
2018-03-22T11:09:51.106Z,54.50
2018-03-22T11:12:19.661Z,53.90
2018-03-22T11:14:47.910Z,53.70
2018-03-22T11:17:16.117Z,55.00
2018-03-22T11:19:44.401Z,54.50
2018-03-22T11:22:12.607Z,55.20
2018-03-22T11:24:40.836Z,53.90
2018-03-22T11:27:09.054Z,54.80
2018-03-22T11:29:37.258Z,55.10
2018-03-22T11:32:05.490Z,54.00
2018-03-22T11:34:33.735Z,53.10
2018-03-22T11:37:01.959Z,53.10
2018-03-22T11:39:30.187Z,54.30
2018-03-22T11:41:58.433Z,53.20
2018-03-22T11:44:27.427Z,53.50
2018-03-22T11:46:56.447Z,53.40
2018-03-22T11:49:24.670Z,53.40
2018-03-22T11:51:52.866Z,55.20
2018-03-22T11:54:21.836Z,54.80
2018-03-22T11:56:50.065Z,54.80
2018-03-22T11:59:18.272Z,56.50
2018-03-22T12:01:46.489Z,56.10
2018-03-22T12:04:14.724Z,56.40
2018-03-22T12:06:42.949Z,57.00
2018-03-22T12:09:11.184Z,58.60
2018-03-22T12:11:40.218Z,60.50
2018-03-22T12:14:08.428Z,60.40
2018-03-22T12:16:36.729Z,60.70
2018-03-22T12:19:04.976Z,64.90
2018-03-22T12:21:33.176Z,67.20
2018-03-22T12:24:01.412Z,69.60
2018-03-22T12:26:29.633Z,72.50
2018-03-22T12:28:57.859Z,73.50
2018-03-22T12:31:26.078Z,76.80
2018-03-22T12:33:54.282Z,81.00
2018-03-22T12:36:23.299Z,84.80
2018-03-22T12:38:51.506Z,84.70
2018-03-22T12:41:19.858Z,83.60
2018-03-22T12:43:48.165Z,84.90
2018-03-22T12:46:16.501Z,83.50
2018-03-22T12:48:44.777Z,84.20
2018-03-22T12:51:13.017Z,84.20
2018-03-22T12:53:41.205Z,85.80
2018-03-22T12:56:10.209Z,81.30
2018-03-22T12:58:39.371Z,82.90
2018-03-22T13:01:07.589Z,82.80
2018-03-22T13:03:35.873Z,83.30
2018-03-22T13:06:04.129Z,83.30
2018-03-22T13:08:32.289Z,83.20
2018-03-22T13:11:00.543Z,83.70
2018-03-22T13:13:28.753Z,85.40
2018-03-22T13:15:57.744Z,86.60
2018-03-22T13:18:26.749Z,86.90
2018-03-22T13:20:54.954Z,86.90
2018-03-22T13:23:23.177Z,86.80
2018-03-22T13:25:52.224Z,87.20
2018-03-22T13:28:20.466Z,87.10
2018-03-22T13:30:49.508Z,88.60
2018-03-22T13:33:17.730Z,88.60
2018-03-22T13:35:46.142Z,87.80
2018-03-22T13:38:14.369Z,87.70
2018-03-22T13:40:43.397Z,88.90
2018-03-22T13:43:12.368Z,89.30
2018-03-22T13:45:41.343Z,88.40
2018-03-22T13:48:09.582Z,88.40
2018-03-22T13:50:37.812Z,88.50
2018-03-22T13:53:06.038Z,88.40
2018-03-22T13:55:34.256Z,87.40
2018-03-22T13:58:03.234Z,87.10
2018-03-22T14:00:31.502Z,87.10
2018-03-22T14:02:59.761Z,87.50
2018-03-22T14:05:27.970Z,86.10
2018-03-22T14:07:56.945Z,87.20
2018-03-22T14:10:25.225Z,86.90
2018-03-22T14:12:53.450Z,87.30
2018-03-22T14:15:21.685Z,85.80
2018-03-22T14:17:50.723Z,88.60
2018-03-22T14:20:19.009Z,88.30
2018-03-22T14:22:47.221Z,87.30
2018-03-22T14:25:15.572Z,87.40
2018-03-22T14:27:43.845Z,88.20
2018-03-22T14:30:12.366Z,88.30
2018-03-22T14:32:41.784Z,88.80
2018-03-22T14:35:10.777Z,87.40
2018-03-22T14:37:39.854Z,86.80
2018-03-22T14:40:08.533Z,86.60
2018-03-22T14:42:36.702Z,87.50
2018-03-22T14:45:05.041Z,86.10
2018-03-22T14:47:33.220Z,87.60
2018-03-22T14:50:01.787Z,87.40
2018-03-22T14:52:30.077Z,88.70
2018-03-22T14:54:58.313Z,89.80
2018-03-22T14:57:27.356Z,90.00
2018-03-22T14:59:56.616Z,90.00
2018-03-22T15:02:24.851Z,90.70
2018-03-22T15:04:53.077Z,90.80
2018-03-22T15:07:21.348Z,91.50
2018-03-22T15:09:49.686Z,91.60
2018-03-22T15:12:17.889Z,91.80
2018-03-22T15:14:46.897Z,93.00
2018-03-22T15:17:16.374Z,93.00
2018-03-22T15:19:44.569Z,93.60
2018-03-22T15:22:13.565Z,94.50
2018-03-22T15:24:42.643Z,94.80
2018-03-22T15:27:11.270Z,94.80
2018-03-22T15:29:40.229Z,95.00
2018-03-22T15:32:09.604Z,95.10
2018-03-22T15:34:37.836Z,95.00
2018-03-22T15:37:06.049Z,95.00
2018-03-22T15:39:34.357Z,94.90
2018-03-22T15:42:02.586Z,95.40
2018-03-22T15:44:31.126Z,95.50
2018-03-22T15:46:59.430Z,95.60
2018-03-22T15:49:27.635Z,95.70
2018-03-22T15:51:56.093Z,95.60
2018-03-22T15:54:24.348Z,95.50
2018-03-22T15:56:52.774Z,95.60
2018-03-22T15:59:20.973Z,95.90
2018-03-22T16:01:50.043Z,95.40
2018-03-22T16:04:18.271Z,95.40
2018-03-22T16:06:46.505Z,95.10
2018-03-22T16:09:14.904Z,94.60
2018-03-22T16:11:43.960Z,95.00
2018-03-22T16:14:12.169Z,95.00
2018-03-22T16:16:41.170Z,94.90
2018-03-22T16:19:10.154Z,94.50
2018-03-22T16:21:39.522Z,94.90
2018-03-22T16:24:07.800Z,94.90
2018-03-22T16:26:36.052Z,94.80
2018-03-22T16:29:04.337Z,95.10
2018-03-22T16:31:32.572Z,94.80
2018-03-22T16:34:01.551Z,94.60
2018-03-22T16:36:29.875Z,94.70
2018-03-22T16:38:58.110Z,94.70
2018-03-22T16:41:27.113Z,94.90
2018-03-22T16:43:57.072Z,95.20
2018-03-22T16:46:25.662Z,95.20
2018-03-22T16:48:53.856Z,95.10
2018-03-22T16:51:22.143Z,95.00
2018-03-22T16:53:50.391Z,94.70
2018-03-22T16:56:18.868Z,95.00
2018-03-22T16:58:47.264Z,95.10
2018-03-22T17:01:15.656Z,95.20
2018-03-22T17:03:44.716Z,95.00
2018-03-22T17:06:13.004Z,95.00
2018-03-22T17:08:41.376Z,95.10
2018-03-22T17:11:09.585Z,95.00
2018-03-22T17:13:37.843Z,95.30
2018-03-22T17:16:06.221Z,95.30
2018-03-22T17:18:34.520Z,95.20
2018-03-22T17:21:02.756Z,95.10
2018-03-22T17:23:31.145Z,95.40
2018-03-22T17:25:59.397Z,95.20
2018-03-22T17:28:27.595Z,95.40
2018-03-22T17:30:56.633Z,95.40
2018-03-22T17:33:25.625Z,95.40
2018-03-22T17:35:53.833Z,95.30
2018-03-22T17:38:22.062Z,95.30
2018-03-22T17:40:50.279Z,95.10
2018-03-22T17:43:18.481Z,95.30
2018-03-22T17:45:46.968Z,95.30
2018-03-22T17:48:15.208Z,95.60
2018-03-22T17:50:43.427Z,95.50
2018-03-22T17:53:11.683Z,95.70
2018-03-22T17:55:41.556Z,95.70
2018-03-22T17:58:09.753Z,95.60
2018-03-22T18:00:38.024Z,95.70
2018-03-22T18:03:06.230Z,95.60
2018-03-22T18:05:35.637Z,95.90
2018-03-22T18:08:04.064Z,95.90
2018-03-22T18:10:32.339Z,95.80
2018-03-22T18:13:00.537Z,95.80
2018-03-22T18:15:28.844Z,95.90
2018-03-22T18:17:57.086Z,96.20
2018-03-22T18:20:25.311Z,96.30
2018-03-22T18:22:53.558Z,96.30
2018-03-22T18:25:21.797Z,96.20
2018-03-22T18:27:50.783Z,96.10
2018-03-22T18:30:19.076Z,96.10
2018-03-22T18:32:48.111Z,96.00
2018-03-22T18:35:16.305Z,96.10
2018-03-22T18:37:44.888Z,96.20
2018-03-22T18:40:13.092Z,96.30
2018-03-22T18:42:42.071Z,96.10
2018-03-22T18:45:10.297Z,96.10
2018-03-22T18:47:38.657Z,96.10
2018-03-22T18:50:06.853Z,96.20
2018-03-22T18:52:35.083Z,96.10
2018-03-22T18:55:04.208Z,96.10
2018-03-22T18:57:32.467Z,96.10
2018-03-22T19:00:01.480Z,96.60
2018-03-22T19:02:29.715Z,96.60
2018-03-22T19:04:57.915Z,96.40
2018-03-22T19:07:26.918Z,96.60
2018-03-22T19:09:55.578Z,96.50
2018-03-22T19:12:25.018Z,96.60
2018-03-22T19:14:53.350Z,96.60
2018-03-22T19:17:23.147Z,96.60
2018-03-22T19:19:51.308Z,96.50
2018-03-22T19:22:19.679Z,96.50
2018-03-22T19:24:47.945Z,96.70
2018-03-22T19:27:16.224Z,96.70
2018-03-22T19:29:44.454Z,96.90
2018-03-22T19:32:13.681Z,96.60
2018-03-22T19:34:41.929Z,96.60
2018-03-22T19:37:11.110Z,96.80
2018-03-22T19:39:39.402Z,96.80
2018-03-22T19:44:42.566Z,96.70
2018-03-22T19:47:11.492Z,96.80
2018-03-22T19:49:40.076Z,97.20
2018-03-22T19:52:09.581Z,97.20
2018-03-22T19:54:37.880Z,97.20
2018-03-22T19:57:07.113Z,97.90
2018-03-22T19:59:36.095Z,97.90
2018-03-22T20:02:04.777Z,98.10
2018-03-22T20:04:34.453Z,97.80
2018-03-22T20:07:04.529Z,98.00
2018-03-22T20:09:32.954Z,98.20
2018-03-22T20:12:02.245Z,98.30
2018-03-22T20:14:30.970Z,98.30
2018-03-22T20:17:00.231Z,98.40
2018-03-22T20:19:28.843Z,98.40
2018-03-22T20:22:00.009Z,98.40
2018-03-22T20:24:28.485Z,98.40
2018-03-22T20:26:56.922Z,98.50
2018-03-22T20:29:25.548Z,98.50
2018-03-22T20:31:53.785Z,98.60
2018-03-22T20:34:22.221Z,98.50
2018-03-22T20:36:53.282Z,98.50
2018-03-22T20:39:22.730Z,98.80
2018-03-22T20:41:51.821Z,98.80
2018-03-22T20:44:20.917Z,98.80
2018-03-22T20:46:50.198Z,98.80
2018-03-22T20:49:18.693Z,98.70
2018-03-22T20:51:47.045Z,98.80
2018-03-22T20:54:15.274Z,98.50
2018-03-22T20:56:44.524Z,98.60
2018-03-22T20:59:15.144Z,98.70
2018-03-22T21:01:44.923Z,98.80
2018-03-22T21:04:13.556Z,98.70
2018-03-22T21:06:42.073Z,98.70
2018-03-22T21:09:11.649Z,98.80
2018-03-22T21:11:40.152Z,98.80
2018-03-22T21:14:11.287Z,98.70
2018-03-22T21:16:39.743Z,98.70
2018-03-22T21:19:09.816Z,98.70
2018-03-22T21:21:39.341Z,98.80
2018-03-22T21:24:07.877Z,98.80
2018-03-22T21:26:36.725Z,98.80
2018-03-22T21:29:05.135Z,98.90
2018-03-22T21:31:36.458Z,98.90
2018-03-22T21:34:04.654Z,98.90
2018-03-22T21:36:33.275Z,98.60
2018-03-22T21:39:02.508Z,98.80
2018-03-22T21:41:31.672Z,98.90
2018-03-22T21:44:12.346Z,98.80
2018-03-22T21:46:40.561Z,98.80
2018-03-22T21:49:08.949Z,98.90
2018-03-22T21:51:37.405Z,98.80
2018-03-22T21:54:05.617Z,98.80
2018-03-22T21:56:36.146Z,98.90
2018-03-22T21:59:06.648Z,99.30
2018-03-22T22:01:35.078Z,99.30
2018-03-22T22:04:04.465Z,99.20
2018-03-22T22:06:32.856Z,99.20
2018-03-22T22:09:01.877Z,99.80
2018-03-22T22:11:30.221Z,99.80
2018-03-22T22:13:59.420Z,99.90
2018-03-22T22:16:27.631Z,99.90
2018-03-22T22:18:55.867Z,99.90
2018-03-22T22:21:24.178Z,99.90
2018-03-22T22:23:52.457Z,99.90
2018-03-22T22:26:20.661Z,99.90
2018-03-22T22:28:48.918Z,99.90
2018-03-22T22:31:17.216Z,99.90
2018-03-22T22:33:45.414Z,99.90
2018-03-22T22:36:14.042Z,99.90
2018-03-22T22:38:42.377Z,99.90
2018-03-22T22:41:10.635Z,99.90
2018-03-22T22:43:38.864Z,99.90
2018-03-22T22:46:07.092Z,99.90
2018-03-22T22:51:00.811Z,99.90
2018-03-22T22:53:29.214Z,99.90
2018-03-22T22:55:57.982Z,99.90
2018-03-22T22:58:27.669Z,99.90
2018-03-22T23:00:56.040Z,99.90
2018-03-22T23:03:24.295Z,99.90
2018-03-22T23:05:52.583Z,99.90
2018-03-22T23:08:20.849Z,99.90
2018-03-22T23:10:49.078Z,99.90
2018-03-22T23:13:18.077Z,99.90
2018-03-22T23:15:47.029Z,99.90
2018-03-22T23:18:15.253Z,99.90
2018-03-22T23:20:43.505Z,99.90
2018-03-22T23:23:12.569Z,99.90
2018-03-22T23:25:40.849Z,99.90
2018-03-22T23:28:09.836Z,99.90
2018-03-22T23:30:38.050Z,99.90
2018-03-22T23:33:06.258Z,99.90
2018-03-22T23:35:34.482Z,99.90
2018-03-22T23:38:02.758Z,99.90
2018-03-22T23:40:30.976Z,99.90
2018-03-22T23:42:59.237Z,99.90
2018-03-22T23:45:27.461Z,99.90
2018-03-22T23:47:55.641Z,99.90
2018-03-22T23:50:23.903Z,99.90
2018-03-22T23:52:52.870Z,99.90
2018-03-22T23:55:21.112Z,99.90
2018-03-22T23:57:49.361Z,99.90
